Time;durP1;ratioP1;P1;durP2;ratioP2;P2;SDS_P1;SDS_P2;PMS_P1;PMS_P2;Temp;Humidity;BMP_temperature;BMP_pressure;BME280_temperature;BME280_humidity;BME280_pressure;Samples;Min_cycle;Max_cycle;Signal;HPM_P1;HPM_P2
2022/02/10 00:19:15;;;;;;;6.47;3.00;;;;;;;;;;4991306;28;20130;-69
2022/02/10 00:21:54;;;;;;;4.75;3.22;;;;;;;;;;4985956;28;20039;-70
2022/02/10 00:35:23;;;;;;;4.90;2.63;;;;;;;;;;4984349;28;20469;-69
2022/02/10 00:37:57;;;;;;;3.85;2.63;;;;;;;;;;4989361;28;20101;-69
2022/02/10 00:40:24;;;;;;;7.22;2.72;;;;;;;;;;4995841;28;20022;-69
2022/02/10 00:42:50;;;;;;;3.47;2.42;;;;;;;;;;4987489;28;20800;-70
2022/02/10 00:45:16;;;;;;;3.60;2.47;;;;;;;;;;4990632;28;20085;-69
2022/02/10 00:47:58;;;;;;;4.25;2.33;;;;;;;;;;4989313;28;20025;-70
2022/02/10 00:50:26;;;;;;;4.25;2.85;;;;;;;;;;4988565;28;20026;-70
2022/02/10 00:53:00;;;;;;;3.65;2.47;;;;;;;;;;4987747;28;20022;-70
2022/02/10 00:55:29;;;;;;;4.20;2.85;;;;;;;;;;4984830;28;20503;-69
2022/02/10 00:57:55;;;;;;;5.07;2.40;;;;;;;;;;4987385;28;20117;-69
2022/02/10 01:13:50;;;;;;;4.90;2.65;;;;;;;;;;4989103;28;20053;-69
2022/02/10 01:29:59;;;;;;;4.55;2.13;;;;;;;;;;4986744;28;20041;-70
2022/02/10 01:32:26;;;;;;;4.35;2.60;;;;;;;;;;4987146;28;20724;-70
2022/02/10 01:34:53;;;;;;;7.18;3.85;;;;;;;;;;4997922;28;20026;-70
2022/02/10 01:37:19;;;;;;;4.50;2.33;;;;;;;;;;4983010;28;20049;-69
2022/02/10 01:39:54;;;;;;;4.90;2.17;;;;;;;;;;4986381;28;20049;-71
2022/02/10 02:04:17;;;;;;;6.35;2.08;;;;;;;;;;4990151;28;20037;-70
2022/02/10 02:06:46;;;;;;;3.50;2.05;;;;;;;;;;4996878;28;20506;-70
2022/02/10 02:09:14;;;;;;;6.32;2.55;;;;;;;;;;4982540;28;20022;-70
2022/02/10 02:11:41;;;;;;;5.35;2.15;;;;;;;;;;4979931;28;20034;-70
2022/02/10 02:14:08;;;;;;;5.57;2.10;;;;;;;;;;4982213;28;20050;-70
2022/02/10 02:16:35;;;;;;;6.50;2.30;;;;;;;;;;4977289;28;20453;-70
2022/02/10 02:19:02;;;;;;;5.57;2.10;;;;;;;;;;4981393;28;20030;-70
2022/02/10 02:21:28;;;;;;;4.70;2.05;;;;;;;;;;4985442;28;20035;-70
2022/02/10 02:23:54;;;;;;;4.75;2.28;;;;;;;;;;4984599;28;20031;-70
2022/02/10 02:26:25;;;;;;;4.10;2.50;;;;;;;;;;4983081;28;20076;-70
2022/02/10 02:28:56;;;;;;;5.00;2.40;;;;;;;;;;4989087;28;20049;-70
2022/02/10 02:31:27;;;;;;;8.60;2.20;;;;;;;;;;4988718;28;20120;-70
2022/02/10 02:34:20;;;;;;;6.75;2.15;;;;;;;;;;4985675;28;20026;-70
2022/02/10 02:37:12;;;;;;;;;;;;;;;;;;4985278;28;20050;-70
2022/02/10 02:39:51;;;;;;;2.35;1.80;;;;;;;;;;4988692;28;20405;-70
2022/02/10 03:04:59;;;;;;;3.42;2.17;;;;;;;;;;4985372;28;20511;-70
2022/02/10 03:07:06;;;;;;;9.63;2.22;;;;;;;;;;4991089;28;20130;-70
2022/02/10 03:09:39;;;;;;;6.97;2.17;;;;;;;;;;4998131;28;20400;-70
2022/02/10 03:12:05;;;;;;;5.72;2.40;;;;;;;;;;4990037;28;20030;-70
2022/02/10 03:14:36;;;;;;;4.60;2.65;;;;;;;;;;4989466;28;20026;-70
2022/02/10 03:20:13;;;;;;;4.13;2.03;;;;;;;;;;4985623;28;20073;-70
2022/02/10 04:15:00;;;;;;;4.85;2.35;;;;;;;;;;4991983;28;20088;-70
2022/02/10 04:20:36;;;;;;;6.30;2.47;;;;;;;;;;4992243;28;20042;-70
2022/02/10 04:23:15;;;;;;;4.28;2.25;;;;;;;;;;4982185;28;20055;-69
2022/02/10 04:59:44;;;;;;;4.05;2.53;;;;;;;;;;4991333;28;20440;-70
2022/02/10 05:24:09;;;;;;;9.20;2.25;;;;;;;;;;4992082;28;20068;-70
2022/02/10 05:34:45;;;;;;;7.80;2.70;;;;;;;;;;4988333;28;20076;-70
2022/02/10 05:37:11;;;;;;;3.97;2.00;;;;;;;;;;4986322;28;20061;-70
2022/02/10 05:39:42;;;;;;;4.97;2.10;;;;;;;;;;4984323;28;20034;-70
2022/02/10 05:47:45;;;;;;;8.02;2.85;;;;;;;;;;4979428;28;20043;-70
2022/02/10 06:52:04;;;;;;;4.22;2.25;;;;;;;;;;4987050;28;20507;-70
2022/02/10 06:54:58;;;;;;;5.10;2.03;;;;;;;;;;4986943;28;20130;-70
2022/02/10 07:03:27;;;;;;;5.88;2.30;;;;;;;;;;4989730;28;20455;-69
2022/02/10 07:08:34;;;;;;;2.53;1.95;;;;;;;;;;4977538;28;20042;-70
2022/02/10 09:03:54;;;;;;;4.68;2.55;;;;;;;;;;4980129;28;20031;-71
2022/02/10 09:06:37;;;;;;;8.82;2.53;;;;;;;;;;4981834;28;20026;-69
2022/02/10 09:09:41;;;;;;;3.10;2.00;;;;;;;;;;4979023;28;20022;-68
2022/02/10 09:20:14;;;;;;;5.57;2.45;;;;;;;;;;4979477;28;20047;-69
2022/02/10 09:57:29;;;;;;;4.40;2.63;;;;;;;;;;4975991;28;20113;-70
2022/02/10 10:00:04;;;;;;;;;;;;;;;;;;4984902;28;20045;-70
2022/02/10 10:03:18;;;;;;;9.32;2.67;;;;;;;;;;5000109;28;20459;-70
2022/02/10 10:05:34;;;;;;;6.30;2.30;;;;;;;;;;4992807;28;20081;-70
2022/02/10 10:16:19;;;;;;;7.90;2.92;;;;;;;;;;4980960;28;20096;-70
2022/02/10 10:21:36;;;;;;;5.55;2.00;;;;;;;;;;4980722;28;20100;-70
2022/02/10 10:51:52;;;;;;;5.28;2.50;;;;;;;;;;4986111;28;20407;-69
2022/02/10 10:54:29;;;;;;;9.65;2.17;;;;;;;;;;4985153;28;20032;-70
2022/02/10 10:57:04;;;;;;;3.80;2.40;;;;;;;;;;4983850;28;20034;-70
2022/02/10 10:59:38;;;;;;;6.27;2.20;;;;;;;;;;4984250;28;20030;-70
2022/02/10 11:38:18;;;;;;;7.75;2.55;;;;;;;;;;4984075;28;20130;-70
2022/02/10 11:41:07;;;;;;;5.70;3.17;;;;;;;;;;4985728;28;20126;-70
2022/02/10 11:43:44;;;;;;;10.85;3.25;;;;;;;;;;4977831;28;20034;-69
2022/02/10 14:14:00;;;;;;;3.90;2.35;;;;;;;;;;4979320;28;20054;-71
2022/02/10 14:16:41;;;;;;;3.78;2.30;;;;;;;;;;4985055;28;20125;-69
2022/02/10 14:19:27;;;;;;;8.23;2.80;;;;;;;;;;4982072;28;20054;-70
2022/02/10 14:27:10;;;;;;;7.35;3.03;;;;;;;;;;4979313;28;20085;-69
2022/02/10 14:29:40;;;;;;;3.35;1.92;;;;;;;;;;4980657;28;20030;-70
2022/02/10 14:32:07;;;;;;;4.05;1.60;;;;;;;;;;4984688;28;20044;-71
2022/02/10 14:34:34;;;;;;;5.57;2.20;;;;;;;;;;4979042;28;20038;-70
2022/02/10 14:37:17;;;;;;;5.80;2.33;;;;;;;;;;5000430;28;20057;-71
2022/02/10 15:21:20;;;;;;;3.85;2.55;;;;;;;;;;4980687;28;20088;-71
2022/02/10 16:16:54;;;;;;;3.50;3.20;;;;;;;;;;4980243;28;20027;-69
2022/02/10 16:19:20;;;;;;;5.55;3.78;;;;;;;;;;4978136;28;20054;-70
2022/02/10 16:21:59;;;;;;;9.88;6.65;;;;;;;;;;4994945;28;20113;-69
2022/02/10 16:24:35;;;;;;;7.88;4.30;;;;;;;;;;4979187;28;20049;-69
2022/02/10 16:27:13;;;;;;;8.27;6.60;;;;;;;;;;4980135;28;20038;-69
2022/02/10 16:29:39;;;;;;;5.85;2.85;;;;;;;;;;4996521;28;20058;-71
2022/02/10 16:32:05;;;;;;;3.90;2.50;;;;;;;;;;4983697;28;20025;-70
2022/02/10 16:34:32;;;;;;;3.97;2.45;;;;;;;;;;4977102;28;20453;-69
2022/02/10 16:36:59;;;;;;;2.65;2.30;;;;;;;;;;4978878;28;20035;-70
2022/02/10 16:39:25;;;;;;;3.90;2.33;;;;;;;;;;4986874;28;20498;-69
2022/02/10 16:41:52;;;;;;;4.30;2.53;;;;;;;;;;4982686;28;20035;-70
2022/02/10 16:44:18;;;;;;;4.22;3.40;;;;;;;;;;4979777;28;20493;-68
2022/02/10 16:46:46;;;;;;;5.20;4.20;;;;;;;;;;4986288;28;20023;-68
2022/02/10 16:49:15;;;;;;;6.75;5.72;;;;;;;;;;4986673;28;20030;-69
2022/02/10 16:51:44;;;;;;;9.93;4.95;;;;;;;;;;4986910;28;20027;-70
2022/02/10 16:54:20;;;;;;;6.50;4.80;;;;;;;;;;4986681;28;20026;-69
2022/02/10 16:57:07;;;;;;;7.03;5.22;;;;;;;;;;4976245;28;20057;-69
2022/02/10 17:00:03;;;;;;;7.72;3.83;;;;;;;;;;4979881;28;20166;-70
2022/02/10 17:18:49;;;;;;;7.47;4.82;;;;;;;;;;4979964;28;20370;-70
2022/02/10 17:26:47;;;;;;;8.82;5.18;;;;;;;;;;4981973;28;20041;-68
2022/02/10 17:29:28;;;;;;;128.02;64.65;;;;;;;;;;4978699;28;20027;-69
2022/02/10 17:43:10;;;;;;;48.72;34.80;;;;;;;;;;4981810;28;20138;-69
2022/02/10 17:53:27;;;;;;;19.92;16.25;;;;;;;;;;4977172;28;20125;-71
2022/02/10 17:55:53;;;;;;;17.17;14.15;;;;;;;;;;4981432;28;20033;-69
2022/02/10 17:58:23;;;;;;;16.50;14.75;;;;;;;;;;4977799;28;20031;-69
2022/02/10 18:00:53;;;;;;;12.38;10.98;;;;;;;;;;4985616;28;20030;-70
2022/02/10 18:03:20;;;;;;;10.38;7.68;;;;;;;;;;4989225;28;20081;-69
2022/02/10 18:08:18;;;;;;;12.43;8.88;;;;;;;;;;4978281;28;20031;-69
2022/02/10 18:16:06;;;;;;;16.27;12.90;;;;;;;;;;4991371;28;20141;-68
2022/02/10 18:18:40;;;;;;;15.10;12.40;;;;;;;;;;4980850;28;20396;-68
2022/02/10 18:26:30;;;;;;;6.03;4.30;;;;;;;;;;4982860;28;20030;-69
2022/02/10 18:29:08;;;;;;;13.13;11.93;;;;;;;;;;4980531;28;20022;-70
2022/02/10 18:38:18;;;;;;;11.45;6.53;;;;;;;;;;4982353;28;20045;-69
2022/02/10 19:09:42;;;;;;;8.93;4.90;;;;;;;;;;4979400;28;20058;-67
2022/02/10 19:12:27;;;;;;;10.48;5.53;;;;;;;;;;4981143;28;20433;-68
2022/02/10 19:15:17;;;;;;;53.20;32.60;;;;;;;;;;4981808;28;20103;-68
2022/02/10 19:17:43;;;;;;;13.18;9.13;;;;;;;;;;4980320;28;20085;-69
2022/02/10 19:20:09;;;;;;;50.58;25.90;;;;;;;;;;4986499;28;20026;-69
2022/02/10 19:22:35;;;;;;;148.93;70.85;;;;;;;;;;4984412;28;20444;-69
2022/02/10 19:25:02;;;;;;;335.17;135.10;;;;;;;;;;4989411;28;20038;-70
2022/02/10 19:27:29;;;;;;;190.82;94.22;;;;;;;;;;4986473;28;20026;-69
2022/02/10 19:29:59;;;;;;;54.13;34.22;;;;;;;;;;4986374;28;20033;-70
2022/02/10 19:32:29;;;;;;;54.92;34.05;;;;;;;;;;4986638;28;20022;-68
2022/02/10 19:34:57;;;;;;;37.28;23.88;;;;;;;;;;4982459;28;20027;-70
2022/02/10 19:37:25;;;;;;;51.67;31.88;;;;;;;;;;4998257;28;20045;-69
2022/02/10 19:39:59;;;;;;;39.05;25.35;;;;;;;;;;4996647;28;20583;-70
2022/02/10 19:42:28;;;;;;;41.85;26.23;;;;;;;;;;4982493;28;20022;-70
2022/02/10 19:45:00;;;;;;;28.98;19.05;;;;;;;;;;4986117;28;20133;-71
2022/02/10 19:47:32;;;;;;;28.98;18.02;;;;;;;;;;4981187;28;20018;-71
2022/02/10 19:49:59;;;;;;;25.30;15.80;;;;;;;;;;4978618;28;20109;-70
2022/02/10 19:52:26;;;;;;;24.00;13.38;;;;;;;;;;4986620;28;20018;-71
2022/02/10 19:54:56;;;;;;;23.70;13.98;;;;;;;;;;4986510;28;20674;-70
2022/02/10 19:57:24;;;;;;;40.45;20.98;;;;;;;;;;4994945;28;20370;-71
2022/02/10 19:59:52;;;;;;;19.20;12.82;;;;;;;;;;4986321;28;20049;-68
2022/02/10 20:02:21;;;;;;;28.13;14.55;;;;;;;;;;4989648;28;20035;-70
2022/02/10 20:04:47;;;;;;;20.92;10.90;;;;;;;;;;4986172;28;20404;-70
2022/02/10 20:07:13;;;;;;;32.47;16.55;;;;;;;;;;4988186;28;20069;-69
2022/02/10 20:09:40;;;;;;;26.27;14.73;;;;;;;;;;4986889;28;20894;-70
2022/02/10 20:12:06;;;;;;;34.88;16.42;;;;;;;;;;4990474;28;20433;-70
2022/02/10 20:14:33;;;;;;;34.15;17.17;;;;;;;;;;4990545;28;20499;-70
2022/02/10 20:16:59;;;;;;;34.33;18.98;;;;;;;;;;4985047;28;20382;-71
2022/02/10 20:19:25;;;;;;;143.30;64.18;;;;;;;;;;4983178;28;20109;-70
2022/02/10 20:21:52;;;;;;;287.38;115.43;;;;;;;;;;4984967;28;20022;-70
2022/02/10 20:24:18;;;;;;;393.08;159.90;;;;;;;;;;4986830;28;20033;-70
2022/02/10 20:26:44;;;;;;;105.80;52.92;;;;;;;;;;5004044;28;20535;-70
2022/02/10 20:29:11;;;;;;;40.83;24.38;;;;;;;;;;4980357;28;20037;-69
2022/02/10 20:31:39;;;;;;;46.60;28.05;;;;;;;;;;4983261;28;20432;-72
2022/02/10 20:34:11;;;;;;;31.02;19.55;;;;;;;;;;4985182;28;20034;-70
2022/02/10 20:36:38;;;;;;;29.25;19.08;;;;;;;;;;4985112;28;20086;-70
2022/02/10 20:39:05;;;;;;;29.35;17.17;;;;;;;;;;4979114;28;20039;-70
2022/02/10 20:41:34;;;;;;;22.88;16.17;;;;;;;;;;4986018;28;20053;-71
2022/02/10 20:44:01;;;;;;;28.48;12.82;;;;;;;;;;4983019;28;20033;-71
2022/02/10 20:46:30;;;;;;;21.63;12.00;;;;;;;;;;4984388;28;21620;-71
2022/02/10 20:48:56;;;;;;;24.40;14.27;;;;;;;;;;4986875;28;20056;-69
2022/02/10 20:51:22;;;;;;;26.67;14.05;;;;;;;;;;4988482;28;20038;-69
2022/02/10 20:53:50;;;;;;;26.40;13.30;;;;;;;;;;4982679;28;20095;-69
2022/02/10 20:56:18;;;;;;;27.25;14.00;;;;;;;;;;4984247;28;20048;-70
2022/02/10 20:58:44;;;;;;;23.45;12.98;;;;;;;;;;4994943;28;20594;-71
2022/02/10 21:01:13;;;;;;;21.95;11.05;;;;;;;;;;4986914;28;20599;-70
2022/02/10 21:03:40;;;;;;;170.43;92.25;;;;;;;;;;4984745;28;20038;-70
2022/02/10 21:06:17;;;;;;;316.23;161.52;;;;;;;;;;5001112;28;20057;-69
2022/02/10 21:08:58;;;;;;;233.35;142.52;;;;;;;;;;4983804;28;20030;-69
2022/02/10 21:11:27;;;;;;;39.75;27.70;;;;;;;;;;4985233;28;20058;-67
2022/02/10 21:13:56;;;;;;;19.48;14.43;;;;;;;;;;4986260;28;20046;-67
2022/02/10 21:16:24;;;;;;;21.17;12.05;;;;;;;;;;5001770;28;20029;-69
2022/02/10 21:18:50;;;;;;;16.15;10.32;;;;;;;;;;4982870;28;20026;-69
2022/02/10 21:21:18;;;;;;;18.65;11.02;;;;;;;;;;4984751;28;20026;-68
2022/02/10 21:23:56;;;;;;;14.07;9.35;;;;;;;;;;4997665;28;20030;-69
2022/02/10 21:26:28;;;;;;;30.17;17.48;;;;;;;;;;4980238;28;20023;-69
2022/02/10 21:29:01;;;;;;;22.20;14.20;;;;;;;;;;4991976;28;20031;-69
2022/02/10 21:31:28;;;;;;;42.97;30.50;;;;;;;;;;4991881;28;20026;-70
2022/02/10 21:36:47;;;;;;;25.00;18.08;;;;;;;;;;4983363;28;20030;-69
2022/02/10 21:39:29;;;;;;;16.27;11.02;;;;;;;;;;4988295;28;20037;-70
2022/02/10 22:11:24;;;;;;;13.52;8.20;;;;;;;;;;4981873;28;20046;-69
2022/02/10 22:16:57;;;;;;;8.45;5.03;;;;;;;;;;4984555;28;20411;-70
2022/02/10 22:19:25;;;;;;;11.38;5.40;;;;;;;;;;4978241;28;20026;-69
2022/02/10 22:21:54;;;;;;;15.10;6.03;;;;;;;;;;4986931;28;20358;-68
2022/02/10 22:24:21;;;;;;;9.32;5.15;;;;;;;;;;4983914;28;20449;-69
2022/02/10 22:26:49;;;;;;;10.52;5.45;;;;;;;;;;4979150;28;20018;-70
2022/02/10 22:29:43;;;;;;;9.88;5.22;;;;;;;;;;4989779;28;20022;-68
2022/02/10 22:37:02;;;;;;;23.55;16.00;;;;;;;;;;4977335;28;20062;-70
2022/02/10 22:39:30;;;;;;;43.63;26.65;;;;;;;;;;4987893;28;20428;-71
2022/02/10 22:41:56;;;;;;;14.55;10.07;;;;;;;;;;4979700;28;20085;-69
2022/02/10 22:44:22;;;;;;;12.02;6.90;;;;;;;;;;4987832;28;20121;-71
2022/02/10 22:46:48;;;;;;;15.60;6.72;;;;;;;;;;4977834;28;20470;-71
2022/02/10 22:49:14;;;;;;;9.60;4.88;;;;;;;;;;4982507;28;20048;-70
2022/02/10 22:51:41;;;;;;;11.30;6.00;;;;;;;;;;4986207;28;20076;-70
2022/02/10 22:54:07;;;;;;;74.47;55.92;;;;;;;;;;4974956;28;20478;-69
2022/02/10 22:56:33;;;;;;;21.08;16.67;;;;;;;;;;4981253;28;20038;-70
2022/02/10 22:59:00;;;;;;;15.05;10.23;;;;;;;;;;4989590;28;20034;-70
2022/02/10 23:01:27;;;;;;;7.47;5.68;;;;;;;;;;4980531;28;20069;-67
2022/02/10 23:03:54;;;;;;;10.50;5.43;;;;;;;;;;4994315;28;20035;-70
2022/02/10 23:06:20;;;;;;;7.88;4.78;;;;;;;;;;4993952;28;20077;-72
2022/02/10 23:08:46;;;;;;;7.95;4.65;;;;;;;;;;4999209;28;20168;-70
2022/02/10 23:11:14;;;;;;;10.18;5.10;;;;;;;;;;5004001;28;20189;-69
2022/02/10 23:13:44;;;;;;;9.57;5.13;;;;;;;;;;4981459;28;20039;-70
2022/02/10 23:16:11;;;;;;;10.70;6.40;;;;;;;;;;4999479;28;20418;-69
2022/02/10 23:18:37;;;;;;;9.70;6.22;;;;;;;;;;4987084;28;20073;-70
2022/02/10 23:21:05;;;;;;;9.20;5.95;;;;;;;;;;4982184;28;20164;-69
2022/02/10 23:23:33;;;;;;;8.13;5.07;;;;;;;;;;4985777;28;20022;-70
2022/02/10 23:26:00;;;;;;;9.52;5.22;;;;;;;;;;4983977;28;20508;-69
2022/02/10 23:28:31;;;;;;;11.45;4.53;;;;;;;;;;5003322;28;20057;-70
2022/02/10 23:30:58;;;;;;;10.13;4.78;;;;;;;;;;4980793;28;20042;-69
2022/02/10 23:33:32;;;;;;;12.80;6.18;;;;;;;;;;4980175;28;20092;-70
2022/02/10 23:38:33;;;;;;;14.95;5.53;;;;;;;;;;4988340;28;20041;-70
2022/02/10 23:43:40;;;;;;;7.78;3.72;;;;;;;;;;4985868;28;20062;-69
2022/02/10 23:46:07;;;;;;;10.15;4.80;;;;;;;;;;4983985;28;20030;-69
2022/02/10 23:48:34;;;;;;;10.27;5.07;;;;;;;;;;4985092;28;20018;-68
2022/02/10 23:51:00;;;;;;;5.88;3.88;;;;;;;;;;4983516;28;20401;-70
2022/02/10 23:53:27;;;;;;;9.40;4.40;;;;;;;;;;4988118;28;20041;-70
2022/02/10 23:55:53;;;;;;;11.20;4.57;;;;;;;;;;4980376;28;20038;-70
